Time;durP1;ratioP1;P1;durP2;ratioP2;P2;SDS_P1;SDS_P2;PMS_P1;PMS_P2;Temp;Humidity;BMP_temperature;BMP_pressure;BME280_temperature;BME280_humidity;BME280_pressure;Samples;Min_cycle;Max_cycle;Signal;HPM_P1;HPM_P2
2021/07/12 00:02:06;;;;;;;0.05;0.05;;;24.00;77.40;;;;;;4192815;28;20048;-55
2021/07/12 00:04:27;;;;;;;0.00;0.00;;;24.00;76.50;;;;;;4191184;28;20590;-53
2021/07/12 00:06:49;;;;;;;0.03;0.03;;;24.10;76.70;;;;;;4192336;28;20056;-53
2021/07/12 00:09:12;;;;;;;0.00;0.00;;;24.00;76.60;;;;;;4191971;28;20560;-53
2021/07/12 00:11:34;;;;;;;0.47;0.47;;;24.00;76.70;;;;;;4208134;28;20072;-52
2021/07/12 00:13:55;;;;;;;0.08;0.08;;;24.00;76.80;;;;;;4208314;28;20051;-50
2021/07/12 00:16:18;;;;;;;0.00;0.00;;;24.00;76.80;;;;;;4209121;28;20127;-51
2021/07/12 00:18:42;;;;;;;0.20;0.20;;;24.00;76.90;;;;;;4209093;28;20422;-54
2021/07/12 00:21:04;;;;;;;0.08;0.08;;;24.00;76.90;;;;;;4209298;28;20048;-53
2021/07/12 00:23:26;;;;;;;0.00;0.00;;;24.00;76.90;;;;;;4208843;28;20052;-54
2021/07/12 00:25:48;;;;;;;0.00;0.00;;;24.00;76.90;;;;;;4209001;28;20048;-52
2021/07/12 00:28:10;;;;;;;0.45;0.45;;;24.00;76.90;;;;;;4208984;28;20159;-54
2021/07/12 00:30:33;;;;;;;0.00;0.00;;;24.00;76.90;;;;;;4208942;28;20048;-52
2021/07/12 00:32:56;;;;;;;0.52;0.52;;;24.00;77.00;;;;;;4236160;27;20511;-51
2021/07/12 00:35:20;;;;;;;0.10;0.10;;;24.00;77.00;;;;;;4208541;28;20366;-54
2021/07/12 00:37:42;;;;;;;0.10;0.10;;;24.00;77.10;;;;;;4208813;28;20066;-51
2021/07/12 00:40:07;;;;;;;0.00;0.00;;;24.00;77.10;;;;;;4190584;28;20052;-53
2021/07/12 00:42:31;;;;;;;0.20;0.20;;;24.00;77.10;;;;;;4191828;28;20055;-53
2021/07/12 00:44:54;;;;;;;0.20;0.20;;;24.00;77.20;;;;;;4190696;28;20643;-52
2021/07/12 00:47:17;;;;;;;0.00;0.00;;;23.90;77.10;;;;;;4191872;28;20486;-51
2021/07/12 00:49:40;;;;;;;0.10;0.10;;;24.00;77.20;;;;;;4191858;28;20060;-51
2021/07/12 00:52:04;;;;;;;0.15;0.15;;;23.90;77.10;;;;;;4191737;28;20249;-51
2021/07/12 00:54:28;;;;;;;0.10;0.10;;;23.90;77.10;;;;;;4190493;28;20483;-55
2021/07/12 00:56:52;;;;;;;1.17;0.25;;;23.90;78.00;;;;;;4190049;28;20055;-52
2021/07/12 00:59:14;;;;;;;0.43;0.22;;;24.00;77.20;;;;;;4190256;28;20407;-50
2021/07/12 01:01:36;;;;;;;0.10;0.10;;;24.00;78.10;;;;;;4191956;28;20048;-55
2021/07/12 01:04:03;;;;;;;0.00;0.00;;;23.90;77.20;;;;;;4190549;28;20530;-53
2021/07/12 01:06:28;;;;;;;0.10;0.10;;;23.90;77.30;;;;;;4191776;28;20048;-54
2021/07/12 01:08:52;;;;;;;0.22;0.22;;;23.90;77.30;;;;;;4191874;28;20057;-53
2021/07/12 01:11:27;;;;;;;4.18;0.47;;;23.90;77.50;;;;;;4190935;28;20132;-53
2021/07/12 01:13:55;;;;;;;0.20;0.20;;;23.90;77.50;;;;;;4205378;28;20082;-53
2021/07/12 01:16:44;;;;;;;0.00;0.00;;;23.90;77.50;;;;;;4206417;28;20152;-50
2021/07/12 01:19:23;;;;;;;0.22;0.22;;;23.90;77.60;;;;;;4206277;28;20066;-52
2021/07/12 01:22:09;;;;;;;0.30;0.30;;;23.80;77.60;;;;;;4207864;28;20110;-52
2021/07/12 01:25:13;;;;;;;0.00;0.00;;;23.90;77.80;;;;;;4207101;28;20051;-53
2021/07/12 01:28:09;;;;;;;0.00;0.00;;;23.80;77.80;;;;;;4207609;28;20047;-52
2021/07/12 01:31:03;;;;;;;0.00;0.00;;;23.80;77.80;;;;;;4206275;28;20474;-51
2021/07/12 01:33:33;;;;;;;0.13;0.13;;;23.80;77.90;;;;;;4189848;28;20052;-50
2021/07/12 01:36:03;;;;;;;0.38;0.38;;;23.80;77.90;;;;;;4189554;28;20453;-52
2021/07/12 01:38:39;;;;;;;0.00;0.00;;;23.80;78.00;;;;;;4206598;28;20048;-54
2021/07/12 01:41:11;;;;;;;0.03;0.03;;;23.80;78.00;;;;;;4207313;28;20044;-56
2021/07/12 01:43:39;;;;;;;0.65;0.65;;;23.80;78.10;;;;;;4207456;28;20056;-54
2021/07/12 01:46:06;;;;;;;0.20;0.20;;;23.80;78.10;;;;;;4235586;27;20445;-54
2021/07/12 01:48:36;;;;;;;0.50;0.50;;;23.80;78.10;;;;;;4206781;28;20071;-56
2021/07/12 01:51:01;;;;;;;0.40;0.40;;;23.80;78.20;;;;;;4189534;28;20053;-51
2021/07/12 01:53:31;;;;;;;0.00;0.00;;;23.80;78.30;;;;;;4189399;28;20048;-51
2021/07/12 01:55:56;;;;;;;;;;;23.80;78.20;;;;;;4189956;28;20084;-54
2021/07/12 01:58:26;;;;;;;0.28;0.28;;;23.80;78.20;;;;;;4189948;28;20010;-51
2021/07/12 02:00:51;;;;;;;0.00;0.00;;;23.80;78.20;;;;;;4189627;28;20060;-51
2021/07/12 02:03:16;;;;;;;0.10;0.10;;;23.80;78.20;;;;;;4189865;28;20515;-51
2021/07/12 02:05:43;;;;;;;0.00;0.00;;;23.80;78.30;;;;;;4189394;28;20053;-52
2021/07/12 02:08:10;;;;;;;0.00;0.00;;;23.80;78.20;;;;;;4190782;28;20086;-50
2021/07/12 02:10:36;;;;;;;0.22;0.22;;;23.80;79.10;;;;;;4204712;28;20051;-50
2021/07/12 02:13:01;;;;;;;0.20;0.20;;;23.80;78.20;;;;;;4206246;28;20066;-49
2021/07/12 02:15:31;;;;;;;0.85;0.85;;;23.80;78.20;;;;;;4205720;28;20040;-49
2021/07/12 02:17:58;;;;;;;0.00;0.00;;;23.80;78.30;;;;;;4206556;28;20064;-51
2021/07/12 02:20:32;;;;;;;0.00;0.00;;;23.80;78.30;;;;;;4205470;28;20048;-51
2021/07/12 02:22:57;;;;;;;0.08;0.05;;;23.80;78.30;;;;;;4206479;28;20863;-50
2021/07/12 02:25:23;;;;;;;0.00;0.00;;;23.80;78.30;;;;;;4190965;28;20453;-54
2021/07/12 02:27:45;;;;;;;0.90;0.20;;;23.80;78.40;;;;;;4189610;28;20045;-51
2021/07/12 02:30:09;;;;;;;4.32;0.47;;;23.80;78.40;;;;;;4176622;28;20052;-50
2021/07/12 02:32:33;;;;;;;0.08;0.08;;;23.70;78.30;;;;;;4191981;28;20059;-54
2021/07/12 02:34:56;;;;;;;0.08;0.08;;;23.70;78.30;;;;;;4192536;28;20491;-53
2021/07/12 02:37:22;;;;;;;0.63;0.63;;;23.80;78.40;;;;;;4196793;28;20078;-56
2021/07/12 02:39:47;;;;;;;0.10;0.10;;;23.70;78.30;;;;;;4209162;28;20528;-54
2021/07/12 02:42:10;;;;;;;0.05;0.05;;;23.70;78.30;;;;;;4208453;27;20043;-51
2021/07/12 02:44:35;;;;;;;0.40;0.30;;;23.70;78.30;;;;;;4210583;27;20079;-50
2021/07/12 02:47:00;;;;;;;0.00;0.00;;;23.70;78.30;;;;;;4210558;27;20040;-51
2021/07/12 02:49:22;;;;;;;0.20;0.20;;;23.70;78.30;;;;;;4209182;27;20078;-51
2021/07/12 02:51:46;;;;;;;1.10;0.43;;;23.70;78.30;;;;;;4194607;28;20068;-49
2021/07/12 02:54:12;;;;;;;0.22;0.22;;;23.70;78.30;;;;;;4200916;28;20044;-50
2021/07/12 02:56:35;;;;;;;0.00;0.00;;;23.70;78.30;;;;;;4193836;28;20147;-49
2021/07/12 02:58:58;;;;;;;0.05;0.05;;;23.70;78.30;;;;;;4210651;28;20759;-51
2021/07/12 03:01:22;;;;;;;0.00;0.00;;;23.70;78.20;;;;;;4208558;27;20529;-53
2021/07/12 03:03:44;;;;;;;0.22;0.22;;;23.70;78.30;;;;;;4203094;28;20048;-49
2021/07/12 03:06:12;;;;;;;0.47;0.47;;;23.70;78.20;;;;;;4197607;27;20056;-48
2021/07/12 03:08:47;;;;;;;0.32;0.30;;;23.70;78.20;;;;;;4192428;28;20438;-50
2021/07/12 03:11:13;;;;;;;0.00;0.00;;;23.70;78.30;;;;;;4209696;28;20052;-51
2021/07/12 03:13:44;;;;;;;1.38;0.80;;;23.70;78.20;;;;;;4220375;28;20126;-51
2021/07/12 03:16:07;;;;;;;0.10;0.10;;;23.70;78.20;;;;;;4193393;28;20060;-53
2021/07/12 03:18:33;;;;;;;1.10;0.60;;;23.70;78.30;;;;;;4192054;28;20536;-51
2021/07/12 03:20:57;;;;;;;0.43;0.43;;;23.70;78.30;;;;;;4207267;28;20060;-50
2021/07/12 03:23:20;;;;;;;0.00;0.00;;;23.60;78.20;;;;;;4208876;28;20454;-51
2021/07/12 03:25:52;;;;;;;0.00;0.00;;;23.70;78.20;;;;;;4209616;28;20096;-51
2021/07/12 03:28:14;;;;;;;1.98;1.10;;;23.60;78.20;;;;;;4209363;28;20418;-51
2021/07/12 03:30:39;;;;;;;0.00;0.00;;;23.70;78.70;;;;;;4208452;28;20478;-55
2021/07/12 03:33:03;;;;;;;0.00;0.00;;;23.60;78.20;;;;;;4208382;28;20109;-51
2021/07/12 03:35:35;;;;;;;0.63;0.28;;;23.60;78.30;;;;;;4208301;28;20463;-51
2021/07/12 03:37:57;;;;;;;0.00;0.00;;;23.70;78.60;;;;;;4209544;28;20048;-55
2021/07/12 03:40:20;;;;;;;0.50;0.50;;;23.60;78.50;;;;;;4209178;28;20185;-53
2021/07/12 03:42:43;;;;;;;0.20;0.20;;;23.70;78.50;;;;;;4209976;28;20410;-51
2021/07/12 03:45:09;;;;;;;0.15;0.15;;;23.70;78.50;;;;;;4209895;28;20517;-53
2021/07/12 03:47:35;;;;;;;0.30;0.30;;;23.60;78.50;;;;;;4209913;28;20638;-51
2021/07/12 03:50:04;;;;;;;0.10;0.10;;;23.60;78.50;;;;;;4209932;28;20406;-50
2021/07/12 03:52:26;;;;;;;0.10;0.10;;;23.60;78.50;;;;;;4209567;28;20423;-52
2021/07/12 03:54:48;;;;;;;0.63;0.63;;;23.60;78.50;;;;;;4207578;28;20421;-52
2021/07/12 03:57:10;;;;;;;0.15;0.15;;;23.60;78.60;;;;;;4209603;28;20119;-55
2021/07/12 03:59:33;;;;;;;1.02;0.38;;;23.60;78.70;;;;;;4209073;28;20833;-50
2021/07/12 04:01:55;;;;;;;0.00;0.00;;;23.60;79.40;;;;;;4192842;28;20126;-53
2021/07/12 04:04:18;;;;;;;0.28;0.28;;;23.60;78.60;;;;;;4201067;28;20051;-52
2021/07/12 04:06:40;;;;;;;0.32;0.32;;;23.60;78.60;;;;;;4209731;28;20040;-55
2021/07/12 04:09:03;;;;;;;0.30;0.30;;;23.60;78.70;;;;;;4209341;28;20051;-54
2021/07/12 04:11:30;;;;;;;0.00;0.00;;;23.60;78.70;;;;;;4209481;28;20572;-51
2021/07/12 04:13:52;;;;;;;0.65;0.65;;;23.60;78.70;;;;;;4208825;28;20063;-51
2021/07/12 04:16:14;;;;;;;0.65;0.65;;;23.60;78.70;;;;;;4209163;28;20105;-52
2021/07/12 04:18:37;;;;;;;0.30;0.30;;;23.60;78.70;;;;;;4208605;28;20044;-49
2021/07/12 04:21:01;;;;;;;0.17;0.17;;;23.60;78.70;;;;;;4209183;28;20051;-51
2021/07/12 04:23:24;;;;;;;1.10;0.65;;;23.60;78.70;;;;;;4209005;28;20071;-48
2021/07/12 04:25:46;;;;;;;0.00;0.00;;;23.60;78.70;;;;;;4209162;28;20492;-52
2021/07/12 04:28:09;;;;;;;0.10;0.10;;;23.60;78.80;;;;;;4192426;28;20640;-52
2021/07/12 04:30:32;;;;;;;0.20;0.20;;;23.60;78.80;;;;;;4209108;28;20056;-51
2021/07/12 04:32:54;;;;;;;0.80;0.80;;;23.60;78.90;;;;;;4192392;28;20045;-49
2021/07/12 04:35:16;;;;;;;0.10;0.10;;;23.60;79.00;;;;;;4208949;28;20125;-54
2021/07/12 04:37:40;;;;;;;0.00;0.00;;;23.60;79.00;;;;;;4208820;28;20047;-52
2021/07/12 04:40:02;;;;;;;0.15;0.15;;;23.60;79.00;;;;;;4193204;28;20109;-51
2021/07/12 04:42:24;;;;;;;0.20;0.20;;;23.60;79.10;;;;;;4192469;28;20486;-49
2021/07/12 04:44:46;;;;;;;0.03;0.03;;;23.60;79.00;;;;;;4189392;28;20048;-48
2021/07/12 04:47:08;;;;;;;0.88;0.88;;;23.60;79.10;;;;;;4192225;28;20052;-48
2021/07/12 04:49:30;;;;;;;1.17;1.17;;;23.60;79.00;;;;;;4192274;28;20127;-50
2021/07/12 04:51:53;;;;;;;0.25;0.25;;;23.60;79.00;;;;;;4191957;28;20442;-54
2021/07/12 04:54:16;;;;;;;0.88;0.30;;;23.60;79.10;;;;;;4201139;28;20051;-50
2021/07/12 04:56:38;;;;;;;0.00;0.00;;;23.60;79.10;;;;;;4208704;28;20044;-50
2021/07/12 04:59:03;;;;;;;0.20;0.20;;;23.60;79.10;;;;;;4208838;28;20612;-54
2021/07/12 05:01:27;;;;;;;0.47;0.47;;;23.60;79.10;;;;;;4208325;28;20032;-51
2021/07/12 05:03:50;;;;;;;0.45;0.45;;;23.60;79.10;;;;;;4206957;28;20533;-50
2021/07/12 05:06:13;;;;;;;0.22;0.22;;;23.60;79.10;;;;;;4208002;28;20787;-49
2021/07/12 05:08:35;;;;;;;0.05;0.05;;;23.60;79.10;;;;;;4208007;28;20051;-52
2021/07/12 05:10:58;;;;;;;0.68;0.68;;;23.60;79.10;;;;;;4207937;28;20472;-54
2021/07/12 05:13:21;;;;;;;0.35;0.35;;;23.50;79.10;;;;;;4208014;28;20501;-49
2021/07/12 05:15:43;;;;;;;0.47;0.47;;;23.60;79.10;;;;;;4208222;28;20051;-53
2021/07/12 05:18:06;;;;;;;0.22;0.13;;;23.60;79.70;;;;;;4207174;28;20052;-52
2021/07/12 05:20:29;;;;;;;0.40;0.40;;;23.60;79.60;;;;;;4195561;28;20513;-50
2021/07/12 05:22:51;;;;;;;0.08;0.08;;;23.60;79.40;;;;;;4207321;28;20131;-51
2021/07/12 05:25:13;;;;;;;0.57;0.52;;;23.60;79.30;;;;;;4208102;28;20464;-48
2021/07/12 05:27:37;;;;;;;0.10;0.10;;;23.60;79.30;;;;;;4208064;28;20044;-48
2021/07/12 05:30:00;;;;;;;0.45;0.43;;;23.60;79.30;;;;;;4208069;28;20047;-50
2021/07/12 05:32:21;;;;;;;0.20;0.20;;;23.60;79.30;;;;;;4208200;28;20047;-54
2021/07/12 05:34:44;;;;;;;0.52;0.52;;;23.60;79.30;;;;;;4208004;28;20047;-51
2021/07/12 05:37:06;;;;;;;0.10;0.10;;;23.60;79.40;;;;;;4207875;28;20082;-49
2021/07/12 05:39:28;;;;;;;0.20;0.20;;;23.60;79.30;;;;;;4206509;28;20126;-50
2021/07/12 05:41:50;;;;;;;0.28;0.28;;;23.60;79.30;;;;;;4208240;28;20062;-48
2021/07/12 05:44:14;;;;;;;0.10;0.10;;;23.50;79.30;;;;;;4208236;28;20113;-47
2021/07/12 05:46:35;;;;;;;0.63;0.63;;;23.60;79.40;;;;;;4207810;28;20418;-48
2021/07/12 05:48:59;;;;;;;0.20;0.20;;;23.60;79.40;;;;;;4206046;28;20047;-47
2021/07/12 05:51:21;;;;;;;0.98;0.93;;;23.60;79.40;;;;;;4207718;28;20478;-49
2021/07/12 05:53:43;;;;;;;0.65;0.65;;;23.50;79.30;;;;;;4207696;28;20487;-52
2021/07/12 05:56:05;;;;;;;0.00;0.00;;;23.50;79.40;;;;;;4191500;28;20411;-51
2021/07/12 05:58:28;;;;;;;0.30;0.30;;;23.50;79.50;;;;;;4191179;28;20044;-49
2021/07/12 06:00:51;;;;;;;0.10;0.10;;;23.60;79.70;;;;;;4191166;28;20041;-51
2021/07/12 06:03:13;;;;;;;0.80;0.80;;;23.50;79.60;;;;;;4191143;28;20140;-51
2021/07/12 06:05:35;;;;;;;0.57;0.57;;;23.60;79.70;;;;;;4190917;28;20056;-53
2021/07/12 06:07:58;;;;;;;2.92;1.35;;;23.60;79.70;;;;;;4194521;28;20063;-48
2021/07/12 06:10:20;;;;;;;1.38;1.23;;;23.60;79.60;;;;;;4193918;28;21544;-51
2021/07/12 06:12:42;;;;;;;0.43;0.43;;;23.60;79.60;;;;;;4188670;28;20086;-48
2021/07/12 06:15:06;;;;;;;3.83;2.05;;;23.60;79.60;;;;;;4199739;28;20138;-50
2021/07/12 06:17:34;;;;;;;0.80;0.80;;;23.60;79.50;;;;;;4209366;28;20059;-49
2021/07/12 06:19:56;;;;;;;6.75;0.95;;;23.60;79.40;;;;;;4210754;28;20071;-47
2021/07/12 06:22:18;;;;;;;0.10;0.10;;;23.60;79.40;;;;;;4209395;28;20063;-49
2021/07/12 06:24:40;;;;;;;0.30;0.30;;;23.60;79.40;;;;;;4209007;28;20082;-48
2021/07/12 06:27:02;;;;;;;0.25;0.25;;;23.60;79.40;;;;;;4210973;28;20090;-53
2021/07/12 06:29:24;;;;;;;0.70;0.70;;;23.60;80.20;;;;;;4194126;28;20544;-51
2021/07/12 06:31:47;;;;;;;0.10;0.05;;;23.60;81.10;;;;;;4192914;28;20102;-54
2021/07/12 06:34:10;;;;;;;1.00;0.95;;;23.70;81.90;;;;;;4177009;28;20140;-53
2021/07/12 06:36:32;;;;;;;0.30;0.30;;;23.80;82.30;;;;;;4193564;28;20048;-48
2021/07/12 06:38:54;;;;;;;0.40;0.40;;;23.80;82.20;;;;;;4210728;28;20055;-46
2021/07/12 06:41:16;;;;;;;0.80;0.80;;;23.90;81.80;;;;;;4210441;28;20044;-47
2021/07/12 06:43:38;;;;;;;0.55;0.55;;;23.80;81.40;;;;;;4210722;28;20052;-46
2021/07/12 06:46:02;;;;;;;8.40;1.60;;;23.80;81.80;;;;;;4203838;28;20121;-51
2021/07/12 06:48:24;;;;;;;1.00;0.57;;;23.80;80.70;;;;;;4198607;28;20406;-50
2021/07/12 06:51:00;;;;;;;1.02;1.02;;;23.80;80.60;;;;;;4205333;28;20047;-51
2021/07/12 06:53:28;;;;;;;0.30;0.30;;;23.80;80.50;;;;;;4210281;28;20044;-46
2021/07/12 06:55:50;;;;;;;0.15;0.15;;;23.80;80.40;;;;;;4210373;28;20052;-54
2021/07/12 06:58:14;;;;;;;0.08;0.08;;;23.80;80.40;;;;;;4210402;28;20055;-51
2021/07/12 07:00:36;;;;;;;0.38;0.38;;;23.80;80.30;;;;;;4210209;28;20048;-47
2021/07/12 07:02:58;;;;;;;2.00;1.90;;;23.80;80.20;;;;;;4210543;28;20661;-47
2021/07/12 07:05:20;;;;;;;1.33;1.33;;;23.80;80.20;;;;;;4210464;28;20455;-49
2021/07/12 07:07:44;;;;;;;1.40;1.40;;;23.80;80.10;;;;;;4210487;28;20077;-48
2021/07/12 07:10:08;;;;;;;0.70;0.70;;;23.80;80.00;;;;;;4210246;28;20056;-46
2021/07/12 07:12:33;;;;;;;1.92;1.80;;;23.80;80.00;;;;;;4209882;28;20569;-47
2021/07/12 07:14:55;;;;;;;0.98;0.85;;;23.90;80.20;;;;;;4209907;28;20052;-46
2021/07/12 07:17:17;;;;;;;0.20;0.20;;;23.90;79.90;;;;;;4209651;28;20406;-46
2021/07/12 07:19:39;;;;;;;0.98;0.98;;;24.00;79.80;;;;;;4209940;28;20687;-46
2021/07/12 07:22:02;;;;;;;0.55;0.55;;;24.00;79.60;;;;;;4210386;28;20139;-47
2021/07/12 07:24:41;;;;;;;0.20;0.20;;;24.10;79.70;;;;;;4193311;28;20048;-51
2021/07/12 07:27:04;;;;;;;1.20;1.20;;;24.10;79.00;;;;;;4193451;28;20132;-52
2021/07/12 07:29:27;;;;;;;0.25;0.25;;;24.30;78.60;;;;;;4193321;28;20067;-47
2021/07/12 07:31:50;;;;;;;0.68;0.65;;;24.30;78.00;;;;;;4192793;28;20101;-50
2021/07/12 07:34:29;;;;;;;3.85;1.90;;;24.40;77.60;;;;;;4193104;28;20498;-49
2021/07/12 07:36:51;;;;;;;0.47;0.47;;;24.50;77.50;;;;;;4192889;28;20117;-46
2021/07/12 07:39:13;;;;;;;0.95;0.95;;;24.50;77.20;;;;;;4193326;28;20419;-48
2021/07/12 07:41:38;;;;;;;0.82;0.82;;;24.50;76.90;;;;;;4192844;28;20045;-48
2021/07/12 07:44:00;;;;;;;1.70;1.52;;;24.60;76.90;;;;;;4193068;28;20056;-50
2021/07/12 07:46:22;;;;;;;0.55;0.55;;;24.60;76.70;;;;;;4209642;28;20789;-46
2021/07/12 07:48:45;;;;;;;0.38;0.38;;;24.70;76.50;;;;;;4208364;28;20422;-48
2021/07/12 07:51:07;;;;;;;1.33;1.33;;;24.70;76.40;;;;;;4199583;28;20425;-47
2021/07/12 07:53:29;;;;;;;1.27;1.27;;;24.70;76.30;;;;;;4208298;28;20055;-46
2021/07/12 07:55:52;;;;;;;0.65;0.65;;;24.80;76.30;;;;;;4183593;28;20041;-47
2021/07/12 07:58:15;;;;;;;5.28;1.38;;;24.80;76.20;;;;;;4191978;27;20620;-51
2021/07/12 08:00:37;;;;;;;0.25;0.25;;;24.80;76.20;;;;;;4184196;28;20044;-46
2021/07/12 08:02:59;;;;;;;0.45;0.45;;;24.90;76.20;;;;;;4176213;28;20049;-48
2021/07/12 08:05:21;;;;;;;0.75;0.75;;;24.90;76.30;;;;;;4192415;28;20123;-49
2021/07/12 08:07:43;;;;;;;2.63;0.90;;;24.90;76.30;;;;;;4200317;28;20048;-47
2021/07/12 08:10:08;;;;;;;0.60;0.60;;;24.90;76.30;;;;;;4192331;28;20041;-49
2021/07/12 08:12:31;;;;;;;0.93;0.93;;;24.90;76.20;;;;;;4192179;28;20095;-46
2021/07/12 08:14:54;;;;;;;1.20;1.00;;;24.90;76.30;;;;;;4192433;28;20055;-49
2021/07/12 08:17:16;;;;;;;1.85;0.55;;;24.90;76.20;;;;;;4192452;28;20063;-48
2021/07/12 08:19:38;;;;;;;0.25;0.25;;;24.90;76.20;;;;;;4192386;28;20414;-49
2021/07/12 08:22:00;;;;;;;2.90;1.90;;;24.90;76.20;;;;;;4192433;28;20036;-52
2021/07/12 08:24:22;;;;;;;0.65;0.65;;;24.90;76.30;;;;;;4191461;28;20052;-48
2021/07/12 08:26:44;;;;;;;0.52;0.52;;;24.80;76.30;;;;;;4191998;28;20075;-47
2021/07/12 08:29:07;;;;;;;0.52;0.52;;;24.80;76.30;;;;;;4191495;28;20071;-49
2021/07/12 08:31:31;;;;;;;0.65;0.65;;;24.80;76.30;;;;;;4175998;28;20045;-48
2021/07/12 08:33:53;;;;;;;0.22;0.22;;;24.80;76.40;;;;;;4175862;28;20045;-48
2021/07/12 08:36:16;;;;;;;0.68;0.68;;;24.80;76.40;;;;;;4175711;28;20044;-49
2021/07/12 08:38:38;;;;;;;1.90;1.38;;;24.80;76.30;;;;;;4175562;28;20048;-49
2021/07/12 08:41:00;;;;;;;1.20;0.52;;;24.80;76.40;;;;;;4186040;28;20139;-50
2021/07/12 08:43:23;;;;;;;1.27;1.27;;;24.80;76.30;;;;;;4192187;28;20046;-46
2021/07/12 08:45:46;;;;;;;1.42;1.38;;;24.80;76.40;;;;;;4218960;28;20112;-48
2021/07/12 08:48:09;;;;;;;0.73;0.73;;;24.80;76.50;;;;;;4191996;28;20052;-46
2021/07/12 08:50:32;;;;;;;0.25;0.25;;;24.80;76.50;;;;;;4186182;28;20446;-48
2021/07/12 08:52:55;;;;;;;0.70;0.70;;;24.80;76.40;;;;;;4207030;28;20052;-47
2021/07/12 08:55:18;;;;;;;0.95;0.40;;;24.80;76.50;;;;;;4208903;27;20048;-51
2021/07/12 08:57:41;;;;;;;1.15;0.88;;;24.80;76.50;;;;;;4208518;27;20549;-46
2021/07/12 09:00:06;;;;;;;0.57;0.57;;;24.70;76.40;;;;;;4191746;28;20052;-47
2021/07/12 09:02:28;;;;;;;0.45;0.45;;;24.70;76.50;;;;;;4191584;28;20051;-47
2021/07/12 09:04:54;;;;;;;1.95;1.85;;;24.70;76.40;;;;;;4191966;28;20040;-50
2021/07/12 09:07:21;;;;;;;0.43;0.43;;;24.70;76.50;;;;;;4191476;28;20110;-46
2021/07/12 09:09:57;;;;;;;0.57;0.57;;;24.70;76.70;;;;;;4191189;28;20044;-48
2021/07/12 09:12:19;;;;;;;0.35;0.35;;;24.70;76.80;;;;;;4191257;28;20062;-47
2021/07/12 09:15:01;;;;;;;0.50;0.50;;;24.70;76.80;;;;;;4195429;28;20090;-50
2021/07/12 09:17:30;;;;;;;1.10;0.88;;;24.70;76.90;;;;;;4207244;28;20044;-46
2021/07/12 09:19:55;;;;;;;1.07;1.07;;;24.70;76.90;;;;;;4207630;28;20048;-54
2021/07/12 09:22:17;;;;;;;0.60;0.60;;;24.70;77.00;;;;;;4208191;28;20131;-50
2021/07/12 09:24:42;;;;;;;0.35;0.35;;;24.70;76.90;;;;;;4208193;28;20052;-50
2021/07/12 09:27:08;;;;;;;0.25;0.25;;;24.80;76.90;;;;;;4190751;28;20044;-46
2021/07/12 09:29:32;;;;;;;0.20;0.20;;;24.80;76.90;;;;;;4191162;28;20056;-50
2021/07/12 09:31:55;;;;;;;0.55;0.55;;;24.80;76.90;;;;;;4188551;28;20076;-47
2021/07/12 09:34:18;;;;;;;0.32;0.32;;;24.80;76.90;;;;;;4191448;28;20388;-46
2021/07/12 09:36:42;;;;;;;1.35;1.35;;;24.80;76.80;;;;;;4199126;28;20058;-49
2021/07/12 09:39:22;;;;;;;0.63;0.63;;;24.80;76.80;;;;;;4207900;28;20055;-47
2021/07/12 09:41:46;;;;;;;1.90;1.80;;;24.80;76.70;;;;;;4190923;28;20052;-46
2021/07/12 09:44:08;;;;;;;1.35;0.63;;;24.90;76.70;;;;;;4191385;28;20352;-49
2021/07/12 09:46:31;;;;;;;0.30;0.30;;;24.90;76.60;;;;;;4191122;28;20437;-48
2021/07/12 09:49:07;;;;;;;0.68;0.68;;;24.90;76.50;;;;;;4191111;28;20055;-48
2021/07/12 09:51:33;;;;;;;0.20;0.20;;;25.00;76.60;;;;;;4190807;28;20044;-47
2021/07/12 09:53:56;;;;;;;0.52;0.52;;;25.00;76.60;;;;;;4190803;28;20044;-49
2021/07/12 09:56:21;;;;;;;0.30;0.30;;;25.00;76.40;;;;;;4190959;28;20048;-46
2021/07/12 09:58:45;;;;;;;1.33;0.68;;;25.00;76.30;;;;;;4200783;28;20051;-47
2021/07/12 10:01:07;;;;;;;0.03;0.03;;;25.10;76.30;;;;;;4207738;28;20565;-49
2021/07/12 10:03:29;;;;;;;0.25;0.25;;;25.10;76.10;;;;;;4207236;28;20436;-49
2021/07/12 10:05:54;;;;;;;0.40;0.40;;;25.10;76.80;;;;;;4204353;28;20039;-49
2021/07/12 10:08:16;;;;;;;0.80;0.80;;;25.20;75.90;;;;;;4207551;28;20055;-46
2021/07/12 10:10:40;;;;;;;2.97;1.88;;;25.20;75.70;;;;;;4207808;28;20048;-48
2021/07/12 10:13:02;;;;;;;0.82;0.82;;;25.30;75.60;;;;;;4207431;28;20060;-48
2021/07/12 10:15:24;;;;;;;0.73;0.73;;;25.30;75.50;;;;;;4207713;28;20165;-48
2021/07/12 10:17:48;;;;;;;0.50;0.50;;;25.30;75.40;;;;;;4206217;28;20054;-48
2021/07/12 10:20:11;;;;;;;0.00;0.00;;;25.30;75.50;;;;;;4206944;28;20044;-49
2021/07/12 10:22:36;;;;;;;1.48;0.93;;;25.30;75.40;;;;;;4206634;28;20052;-47
2021/07/12 10:25:06;;;;;;;0.10;0.10;;;25.30;75.40;;;;;;4207142;28;20055;-47
2021/07/12 10:27:30;;;;;;;0.50;0.50;;;25.30;75.30;;;;;;4206878;28;20097;-49
2021/07/12 10:29:54;;;;;;;1.70;1.25;;;25.30;75.30;;;;;;4207145;28;20406;-47
2021/07/12 10:32:17;;;;;;;0.60;0.60;;;25.30;75.30;;;;;;4189697;28;21048;-47
2021/07/12 10:34:43;;;;;;;0.40;0.40;;;25.30;75.20;;;;;;4207515;28;20063;-48
2021/07/12 10:37:18;;;;;;;0.52;0.52;;;25.40;75.20;;;;;;4207314;28;20068;-47
2021/07/12 10:40:08;;;;;;;0.40;0.40;;;25.40;75.10;;;;;;4207229;28;20046;-48
2021/07/12 10:42:53;;;;;;;0.50;0.50;;;25.40;75.10;;;;;;4202774;28;20135;-49
2021/07/12 10:45:16;;;;;;;0.20;0.20;;;25.40;75.00;;;;;;4195979;27;20539;-47
2021/07/12 10:47:42;;;;;;;0.68;0.68;;;25.40;75.00;;;;;;4207862;28;20075;-46
2021/07/12 10:50:39;;;;;;;0.20;0.20;;;25.50;75.00;;;;;;4191368;28;20697;-49
2021/07/12 10:53:03;;;;;;;0.30;0.30;;;25.50;75.00;;;;;;4205683;28;20048;-48
2021/07/12 10:55:30;;;;;;;1.10;1.08;;;25.50;75.00;;;;;;4210235;28;20101;-46
2021/07/12 10:58:46;;;;;;;0.40;0.40;;;25.50;75.00;;;;;;4210069;28;20048;-46
2021/07/12 11:01:11;;;;;;;0.73;0.73;;;25.50;74.90;;;;;;4142973;28;20042;-47
2021/07/12 11:03:35;;;;;;;0.75;0.73;;;25.50;74.90;;;;;;4142575;28;20053;-49
2021/07/12 11:05:57;;;;;;;0.25;0.25;;;25.50;74.90;;;;;;4154301;28;20540;-47
2021/07/12 11:08:44;;;;;;;2.17;1.23;;;25.50;75.00;;;;;;4209001;28;20051;-46
2021/07/12 11:11:06;;;;;;;0.57;0.57;;;25.50;74.90;;;;;;4210035;28;20052;-47
2021/07/12 11:13:49;;;;;;;0.75;0.75;;;25.50;74.90;;;;;;4210437;28;20498;-47
2021/07/12 11:16:16;;;;;;;0.20;0.20;;;25.50;74.80;;;;;;4210021;28;20056;-49
2021/07/12 11:18:39;;;;;;;0.47;0.47;;;25.50;74.80;;;;;;4209786;28;20093;-48
2021/07/12 11:21:06;;;;;;;1.17;1.17;;;25.50;74.70;;;;;;4201135;28;20052;-53
2021/07/12 11:23:55;;;;;;;0.52;0.52;;;25.50;74.70;;;;;;4209699;28;20059;-46
2021/07/12 11:26:52;;;;;;;1.05;1.05;;;25.60;74.70;;;;;;4176620;28;20140;-45
2021/07/12 11:29:34;;;;;;;0.47;0.47;;;25.60;75.50;;;;;;4192151;28;20131;-46
2021/07/12 11:31:58;;;;;;;0.40;0.40;;;25.60;74.60;;;;;;4200650;28;20052;-49
2021/07/12 11:34:24;;;;;;;0.08;0.08;;;25.60;74.60;;;;;;4210133;28;20562;-48
2021/07/12 11:36:52;;;;;;;0.82;0.82;;;25.50;75.30;;;;;;4209512;28;20056;-47
2021/07/12 11:39:33;;;;;;;0.30;0.30;;;25.60;74.40;;;;;;4208291;28;20105;-47
2021/07/12 11:41:56;;;;;;;1.15;1.08;;;25.60;74.40;;;;;;4209868;28;20116;-46
2021/07/12 11:44:21;;;;;;;0.00;0.00;;;25.60;74.40;;;;;;4192683;28;20090;-51
2021/07/12 11:46:44;;;;;;;0.47;0.47;;;25.60;74.50;;;;;;4203488;28;20485;-46
2021/07/12 11:49:08;;;;;;;0.25;0.25;;;25.60;74.50;;;;;;4209146;28;20685;-53
2021/07/12 11:51:30;;;;;;;0.93;0.93;;;25.60;74.50;;;;;;4209909;28;22543;-48
2021/07/12 11:53:52;;;;;;;0.98;0.98;;;25.70;74.60;;;;;;4209836;28;20051;-48
2021/07/12 11:56:18;;;;;;;1.85;1.73;;;25.70;74.50;;;;;;4209750;28;20052;-46
2021/07/12 11:58:41;;;;;;;0.35;0.35;;;25.70;74.60;;;;;;4209694;28;20047;-48
2021/07/12 12:01:04;;;;;;;1.00;1.00;;;25.70;74.50;;;;;;4209173;28;20701;-47
2021/07/12 12:03:26;;;;;;;1.48;1.33;;;25.70;74.60;;;;;;4208848;28;20052;-49
2021/07/12 12:05:48;;;;;;;0.65;0.65;;;25.70;74.50;;;;;;4208338;28;20176;-47
2021/07/12 12:08:15;;;;;;;1.40;1.30;;;25.70;74.50;;;;;;4209666;28;20056;-49
2021/07/12 12:10:40;;;;;;;2.80;0.98;;;25.70;74.50;;;;;;4209011;28;20537;-49
2021/07/12 12:13:03;;;;;;;1.23;1.23;;;25.70;74.50;;;;;;4209148;28;20101;-48
2021/07/12 12:15:27;;;;;;;1.65;1.55;;;25.70;74.50;;;;;;4208158;28;20054;-47
2021/07/12 12:17:55;;;;;;;0.68;0.68;;;25.70;74.40;;;;;;4209687;28;20075;-49
2021/07/12 12:20:21;;;;;;;0.32;0.32;;;25.70;74.40;;;;;;4208426;28;20052;-46
2021/07/12 12:23:11;;;;;;;0.52;0.52;;;25.80;74.40;;;;;;4209002;28;20071;-47
2021/07/12 12:25:36;;;;;;;0.55;0.55;;;25.70;74.30;;;;;;4198913;28;20456;-46
2021/07/12 12:27:59;;;;;;;4.15;1.75;;;25.70;74.30;;;;;;4192145;28;20056;-49
2021/07/12 12:30:22;;;;;;;0.80;0.75;;;25.80;74.30;;;;;;4209275;28;20063;-47
2021/07/12 12:32:52;;;;;;;0.20;0.20;;;25.80;74.30;;;;;;4208818;28;20125;-46
2021/07/12 12:35:15;;;;;;;0.70;0.70;;;25.80;74.30;;;;;;4193863;28;20487;-47
2021/07/12 12:37:39;;;;;;;0.85;0.85;;;25.80;74.10;;;;;;4208235;28;20369;-52
2021/07/12 12:40:10;;;;;;;0.43;0.43;;;25.80;74.10;;;;;;4207881;28;20568;-53